Time;durP1;ratioP1;P1;durP2;ratioP2;P2;SDS_P1;SDS_P2;PMS_P1;PMS_P2;Temp;Humidity;BMP_temperature;BMP_pressure;BME280_temperature;BME280_humidity;BME280_pressure;Samples;Min_cycle;Max_cycle;Signal;HPM_P1;HPM_P2
2024/01/04 00:02:14;;;;;;;3.55;1.50;;;;;;;18.66;77.99;99562.84;5016946;28;20072;-39
2024/01/04 00:04:40;;;;;;;2.58;1.35;;;;;;;18.66;78.05;99567.53;5033278;28;20029;-39
2024/01/04 00:07:06;;;;;;;2.60;1.20;;;;;;;18.65;78.22;99574.97;5020262;28;20086;-39
2024/01/04 00:09:31;;;;;;;2.78;1.20;;;;;;;18.64;78.62;99578.00;5019732;28;20452;-39
2024/01/04 00:11:56;;;;;;;4.80;1.30;;;;;;;18.62;78.46;99574.78;5022811;28;20037;-39
2024/01/04 00:14:22;;;;;;;5.35;1.58;;;;;;;18.62;78.79;99592.03;5025323;28;20040;-39
2024/01/04 00:16:47;;;;;;;4.00;1.40;;;;;;;18.60;78.47;99586.88;5020388;28;20437;-39
2024/01/04 00:19:12;;;;;;;4.15;1.60;;;;;;;18.60;78.43;99586.03;5024074;28;20067;-39
2024/01/04 00:21:38;;;;;;;3.78;1.40;;;;;;;18.59;78.66;99595.41;5020445;28;20116;-39
2024/01/04 00:24:04;;;;;;;3.08;1.23;;;;;;;18.58;78.55;99593.78;5023279;28;20423;-39
2024/01/04 00:26:29;;;;;;;5.05;1.40;;;;;;;18.57;78.65;99589.44;5021346;28;20033;-38
2024/01/04 00:28:55;;;;;;;6.05;1.55;;;;;;;18.57;78.72;99583.94;5023209;28;20481;-38
2024/01/04 00:31:20;;;;;;;4.45;1.40;;;;;;;18.55;78.78;99584.25;5022257;28;20367;-39
2024/01/04 00:33:46;;;;;;;3.95;1.45;;;;;;;18.55;78.88;99603.47;5020672;28;20025;-39
2024/01/04 00:36:12;;;;;;;5.10;1.50;;;;;;;18.55;78.99;99611.69;5019988;28;20116;-39
2024/01/04 00:38:38;;;;;;;5.15;1.55;;;;;;;18.54;79.05;99611.97;5020966;28;20022;-39
2024/01/04 00:41:04;;;;;;;3.42;1.30;;;;;;;18.53;78.86;99635.88;5020988;28;20048;-39
2024/01/04 00:43:29;;;;;;;4.28;1.30;;;;;;;18.52;78.73;99625.22;5021980;28;20401;-39
2024/01/04 00:45:54;;;;;;;5.00;1.60;;;;;;;18.52;78.73;99630.69;5020809;28;20347;-39
2024/01/04 00:48:20;;;;;;;3.92;1.58;;;;;;;18.50;78.70;99636.47;5027809;28;20557;-39
2024/01/04 00:50:45;;;;;;;3.25;1.30;;;;;;;18.49;79.00;99637.63;5022193;28;20387;-39
2024/01/04 00:53:11;;;;;;;2.22;1.30;;;;;;;18.49;78.86;99647.78;5021706;28;20121;-39
2024/01/04 00:55:36;;;;;;;3.78;1.45;;;;;;;18.47;78.86;99650.84;5019939;28;20140;-39
2024/01/04 00:58:03;;;;;;;3.90;1.40;;;;;;;18.47;78.87;99658.22;5018326;28;20056;-39
2024/01/04 01:00:30;;;;;;;4.45;1.67;;;;;;;18.46;79.06;99662.91;5020960;28;20132;-39
2024/01/04 01:02:55;;;;;;;3.60;1.50;;;;;;;18.44;78.98;99670.63;5023893;28;20029;-38
2024/01/04 01:05:20;;;;;;;4.40;1.48;;;;;;;18.44;79.21;99676.94;5022472;28;20029;-39
2024/01/04 01:07:46;;;;;;;3.50;1.55;;;;;;;18.43;79.01;99677.28;5016107;28;20493;-39
2024/01/04 01:10:11;;;;;;;3.47;1.38;;;;;;;18.43;79.16;99686.31;5023727;28;20022;-40
2024/01/04 01:12:37;;;;;;;4.68;1.40;;;;;;;18.42;79.18;99689.34;5017069;28;20029;-39
2024/01/04 01:15:02;;;;;;;5.07;1.50;;;;;;;18.42;79.36;99679.19;5021108;28;20120;-39
2024/01/04 01:17:28;;;;;;;3.97;1.60;;;;;;;18.41;79.31;99690.47;5017242;28;20455;-39
2024/01/04 01:19:53;;;;;;;4.70;1.60;;;;;;;18.40;79.54;99681.41;5024612;28;20108;-38
2024/01/04 01:22:19;;;;;;;4.60;1.58;;;;;;;18.39;79.35;99692.69;5026687;28;20052;-39
2024/01/04 01:24:44;;;;;;;4.30;1.83;;;;;;;18.39;79.34;99698.19;5024259;28;20120;-40
2024/01/04 01:27:10;;;;;;;4.25;1.65;;;;;;;18.37;79.33;99695.75;5026940;28;20501;-37
2024/01/04 01:29:35;;;;;;;6.90;2.00;;;;;;;18.36;79.09;99699.63;5024955;28;20480;-37
2024/01/04 01:32:00;;;;;;;4.30;1.85;;;;;;;18.36;79.25;99709.78;5025733;28;20466;-40
2024/01/04 01:34:26;;;;;;;5.63;1.70;;;;;;;18.35;79.39;99719.13;5024520;28;20040;-38
2024/01/04 01:36:52;;;;;;;5.10;1.95;;;;;;;18.33;79.07;99715.88;5024968;28;20126;-39
2024/01/04 01:39:18;;;;;;;5.35;1.73;;;;;;;18.34;79.45;99728.47;5025323;28;20022;-39
2024/01/04 01:41:43;;;;;;;3.35;1.40;;;;;;;18.34;79.68;99723.00;5024674;28;20040;-39
2024/01/04 01:44:09;;;;;;;5.22;1.80;;;;;;;18.33;79.52;99732.34;5026089;28;20112;-39
2024/01/04 01:46:34;;;;;;;4.72;1.90;;;;;;;18.31;79.36;99735.38;5025322;28;20401;-38
2024/01/04 01:48:59;;;;;;;3.45;1.65;;;;;;;18.30;79.62;99732.97;5023129;28;20166;-37
2024/01/04 01:51:26;;;;;;;4.07;1.60;;;;;;;18.30;79.76;99752.16;5025095;28;20026;-37
2024/01/04 01:53:51;;;;;;;4.30;1.92;;;;;;;18.28;79.89;99741.47;5025115;28;20030;-38
2024/01/04 01:56:17;;;;;;;4.32;1.88;;;;;;;18.28;79.68;99749.69;5023862;28;20029;-37
2024/01/04 01:58:43;;;;;;;5.85;2.00;;;;;;;18.28;79.66;99752.44;5025610;28;20057;-36
2024/01/04 02:01:08;;;;;;;4.30;1.77;;;;;;;18.29;79.71;99759.56;5024250;28;20083;-37
2024/01/04 02:03:34;;;;;;;3.53;1.60;;;;;;;18.27;79.27;99762.59;5025096;28;20033;-37
2024/01/04 02:05:59;;;;;;;4.80;1.88;;;;;;;18.27;79.75;99765.34;5025821;28;20029;-37
2024/01/04 02:08:24;;;;;;;6.53;1.90;;;;;;;18.27;79.67;99770.84;5025361;28;20101;-37
2024/01/04 02:10:50;;;;;;;5.32;2.10;;;;;;;18.26;79.45;99771.94;5023706;28;20049;-37
2024/01/04 02:13:15;;;;;;;3.30;1.70;;;;;;;18.27;79.43;99773.59;5025005;28;20493;-37
2024/01/04 02:15:41;;;;;;;5.95;1.77;;;;;;;18.26;79.56;99771.16;5021415;28;20029;-36
2024/01/04 02:18:07;;;;;;;6.35;1.95;;;;;;;18.25;79.71;99778.56;5025384;28;20031;-37
2024/01/04 02:20:32;;;;;;;6.60;1.90;;;;;;;18.25;79.66;99780.50;5023333;28;20288;-37
2024/01/04 02:22:58;;;;;;;4.10;1.77;;;;;;;18.24;79.49;99781.59;5025199;28;20025;-39
2024/01/04 02:25:23;;;;;;;5.13;1.70;;;;;;;18.24;79.68;99787.09;5024283;28;20513;-39
2024/01/04 02:27:48;;;;;;;6.25;1.80;;;;;;;18.24;79.54;99795.31;5024835;28;20056;-38
2024/01/04 02:30:14;;;;;;;4.57;1.80;;;;;;;18.21;79.75;99804.97;5023805;28;20466;-39
2024/01/04 02:32:39;;;;;;;4.22;1.80;;;;;;;18.22;79.67;99812.09;5023701;28;20021;-39
2024/01/04 02:35:05;;;;;;;3.35;1.63;;;;;;;18.23;79.92;99810.97;5023614;28;20052;-39
2024/01/04 02:37:30;;;;;;;3.88;1.50;;;;;;;18.22;79.68;99811.25;5023324;28;20128;-37
2024/01/04 02:39:56;;;;;;;3.88;1.90;;;;;;;18.22;79.59;99814.81;5022023;28;20057;-36
2024/01/04 02:42:21;;;;;;;5.55;1.90;;;;;;;18.21;79.77;99810.44;5023928;28;20397;-37
2024/01/04 02:44:47;;;;;;;3.65;1.92;;;;;;;18.21;79.91;99820.59;5023751;28;20033;-36
2024/01/04 02:47:12;;;;;;;3.53;1.70;;;;;;;18.22;79.80;99816.75;5024199;28;20490;-40
2024/01/04 02:49:38;;;;;;;3.85;1.60;;;;;;;18.21;79.79;99815.94;5025673;28;20112;-39
2024/01/04 02:52:04;;;;;;;6.55;1.90;;;;;;;18.21;79.90;99815.09;5022905;28;20076;-36
2024/01/04 02:54:29;;;;;;;4.28;2.10;;;;;;;18.21;79.67;99821.41;5020524;28;20330;-38
2024/01/04 02:56:55;;;;;;;3.55;1.90;;;;;;;18.22;79.56;99824.97;5021837;28;20059;-39
2024/01/04 02:59:20;;;;;;;4.63;1.95;;;;;;;18.22;79.69;99822.22;5022186;28;20580;-37
2024/01/04 03:01:48;;;;;;;3.72;1.75;;;;;;;18.22;79.68;99833.19;5024443;28;20029;-37
2024/01/04 03:04:14;;;;;;;3.70;1.88;;;;;;;18.21;79.72;99831.56;5022951;28;20017;-37
2024/01/04 03:06:40;;;;;;;4.82;1.75;;;;;;;18.21;79.76;99832.38;5024214;28;20036;-39
2024/01/04 03:09:06;;;;;;;4.25;1.90;;;;;;;18.20;79.48;99841.72;5021166;28;20025;-37
2024/01/04 03:11:31;;;;;;;4.03;1.90;;;;;;;18.21;79.68;99837.88;5022574;28;20033;-37
2024/01/04 03:13:56;;;;;;;4.18;1.85;;;;;;;18.20;79.70;99847.22;5020531;28;20517;-36
2024/01/04 03:16:22;;;;;;;4.78;1.95;;;;;;;18.19;79.52;99856.56;5023821;28;20155;-37
2024/01/04 03:18:47;;;;;;;5.53;2.08;;;;;;;18.19;79.72;99861.25;5022670;28;20029;-36
2024/01/04 03:21:13;;;;;;;5.00;1.92;;;;;;;18.19;79.58;99861.25;5024224;28;20371;-39
2024/01/04 03:23:39;;;;;;;4.47;1.80;;;;;;;18.18;79.53;99856.88;5021926;28;20040;-37
2024/01/04 03:26:04;;;;;;;3.97;1.80;;;;;;;18.17;79.74;99857.97;5023911;28;20108;-38
2024/01/04 03:28:30;;;;;;;3.88;1.73;;;;;;;18.17;79.52;99868.94;5019943;28;20021;-37
2024/01/04 03:30:55;;;;;;;3.85;1.60;;;;;;;18.15;79.43;99861.03;5023353;28;20026;-37
2024/01/04 03:33:21;;;;;;;2.60;1.70;;;;;;;18.14;79.47;99870.38;5019750;28;20071;-37
2024/01/04 03:35:46;;;;;;;4.72;1.92;;;;;;;18.14;79.67;99878.59;5023623;28;20021;-36
2024/01/04 03:38:11;;;;;;;6.80;1.85;;;;;;;18.14;79.52;99875.03;5021376;28;20021;-37
2024/01/04 03:40:37;;;;;;;5.03;1.63;;;;;;;18.14;79.81;99889.56;5039495;28;20043;-37
2024/01/04 03:43:04;;;;;;;6.68;1.90;;;;;;;18.14;79.77;99894.25;5019432;28;20696;-37
2024/01/04 03:45:30;;;;;;;3.45;1.80;;;;;;;18.12;79.54;99884.38;5030104;28;20033;-37
2024/01/04 03:47:56;;;;;;;4.25;1.75;;;;;;;18.12;79.54;99889.88;5020871;28;20032;-37
2024/01/04 03:50:21;;;;;;;4.25;1.73;;;;;;;18.12;79.71;99897.25;5021507;28;21003;-37
2024/01/04 03:52:47;;;;;;;4.70;2.00;;;;;;;18.12;79.86;99900.00;5022501;28;20406;-37
2024/01/04 03:55:15;;;;;;;3.03;1.70;;;;;;;18.11;79.76;99901.13;5019970;28;20118;-38
2024/01/04 03:57:42;;;;;;;3.80;1.95;;;;;;;18.11;79.55;99895.63;5021524;28;20501;-37
2024/01/04 04:00:08;;;;;;;5.30;1.70;;;;;;;18.10;79.80;99899.50;5027648;28;20044;-37
2024/01/04 04:02:33;;;;;;;5.60;2.03;;;;;;;18.08;79.65;99899.78;5023121;28;20055;-39
2024/01/04 04:04:59;;;;;;;5.18;2.00;;;;;;;18.10;79.65;99910.47;5042639;28;20033;-39
2024/01/04 04:07:24;;;;;;;3.72;1.70;;;;;;;18.07;79.65;99908.31;5021923;28;20120;-39
2024/01/04 04:09:49;;;;;;;3.25;1.70;;;;;;;18.08;79.65;99915.44;5023131;28;20508;-39
2024/01/04 04:12:15;;;;;;;5.82;1.77;;;;;;;18.08;79.89;99918.97;5022418;28;20130;-39
2024/01/04 04:14:41;;;;;;;5.25;1.80;;;;;;;18.08;79.89;99920.94;5022002;28;20021;-40
2024/01/04 04:17:06;;;;;;;5.85;1.65;;;;;;;18.06;79.85;99921.22;5021698;28;20088;-40
2024/01/04 04:19:32;;;;;;;3.35;1.70;;;;;;;18.06;80.09;99923.97;5022378;28;20494;-40
2024/01/04 04:21:57;;;;;;;4.93;1.73;;;;;;;18.06;79.77;99921.22;5022001;28;20029;-38
2024/01/04 04:24:23;;;;;;;3.80;1.88;;;;;;;18.05;79.83;99925.09;5035332;28;20055;-38
2024/01/04 04:26:49;;;;;;;5.13;2.00;;;;;;;18.05;79.71;99933.31;5023699;28;20479;-40
2024/01/04 04:29:14;;;;;;;2.33;1.55;;;;;;;18.05;79.83;99921.50;5021720;28;20026;-39
2024/01/04 04:31:39;;;;;;;3.95;1.67;;;;;;;18.03;80.32;99924.56;5024297;28;20094;-37
2024/01/04 04:34:05;;;;;;;3.83;1.60;;;;;;;18.04;80.05;99925.38;5020898;28;20076;-37
2024/01/04 04:36:31;;;;;;;3.00;1.38;;;;;;;18.04;80.23;99931.66;5021727;28;20147;-37
2024/01/04 04:39:00;;;;;;;3.42;1.50;;;;;;;18.03;80.12;99934.72;5022263;28;20079;-38
2024/01/04 04:41:26;;;;;;;4.28;1.90;;;;;;;18.01;80.29;99937.75;5022061;28;20065;-39
2024/01/04 04:43:51;;;;;;;5.18;1.90;;;;;;;18.01;80.02;99935.00;5022993;28;20116;-39
2024/01/04 04:46:18;;;;;;;2.83;1.45;;;;;;;18.01;80.21;99937.75;5021559;28;20021;-40
2024/01/04 04:48:44;;;;;;;3.78;1.70;;;;;;;18.02;80.23;99949.53;5022829;28;20025;-39
2024/01/04 04:51:10;;;;;;;4.60;1.70;;;;;;;18.01;80.02;99945.97;5023817;28;20075;-38
2024/01/04 04:53:35;;;;;;;3.67;1.52;;;;;;;18.02;80.34;99963.25;5021431;28;20467;-39
2024/01/04 04:56:00;;;;;;;4.10;1.77;;;;;;;18.01;80.14;99976.13;5022580;28;20040;-39
2024/01/04 04:58:26;;;;;;;4.55;1.85;;;;;;;18.01;80.35;99980.81;5021851;28;20525;-38
2024/01/04 05:00:51;;;;;;;3.92;1.70;;;;;;;18.01;80.37;99984.34;5021822;28;20108;-37
2024/01/04 05:03:16;;;;;;;3.13;1.60;;;;;;;18.00;80.17;99977.25;5019892;28;20048;-37
2024/01/04 05:05:42;;;;;;;3.28;2.08;;;;;;;18.04;80.30;99981.03;5018909;28;20072;-37
2024/01/04 05:08:08;;;;;;;4.45;1.80;;;;;;;18.06;80.39;99976.06;5021289;28;20027;-37
2024/01/04 05:10:33;;;;;;;5.70;1.60;;;;;;;18.12;80.24;99974.88;5037737;28;20648;-38
2024/01/04 05:12:59;;;;;;;3.05;1.55;;;;;;;18.18;80.20;99983.81;5021716;28;20103;-38
2024/01/04 05:15:28;;;;;;;3.97;1.58;;;;;;;18.24;79.67;99993.59;5020324;28;20059;-37
2024/01/04 05:17:53;;;;;;;2.13;1.42;;;;;;;18.32;79.80;99988.53;5029853;28;20102;-38
2024/01/04 05:20:19;;;;;;;3.30;1.67;;;;;;;18.40;79.23;99982.38;5021704;28;20029;-38
2024/01/04 05:22:45;;;;;;;3.50;1.88;;;;;;;18.48;79.21;99994.59;5022624;28;20057;-37
2024/01/04 05:25:12;;;;;;;2.90;1.60;;;;;;;18.57;79.26;99990.06;5023812;28;20406;-37
2024/01/04 05:27:38;;;;;;;3.00;1.67;;;;;;;18.67;78.86;99987.13;5021067;28;20033;-37
2024/01/04 05:30:07;;;;;;;5.15;1.58;;;;;;;18.77;78.88;99994.34;5017984;28;20025;-37
2024/01/04 05:32:33;;;;;;;2.95;1.65;;;;;;;18.88;78.51;99984.00;5025994;28;20112;-38
2024/01/04 05:34:58;;;;;;;2.95;1.50;;;;;;;18.97;78.26;100001.44;5020064;28;20112;-38
2024/01/04 05:37:23;;;;;;;3.08;1.50;;;;;;;19.07;78.22;99998.50;5019513;28;20065;-37
2024/01/04 05:39:49;;;;;;;3.88;1.60;;;;;;;19.15;77.84;100002.44;5017346;28;20056;-37
2024/01/04 05:42:14;;;;;;;4.38;1.80;;;;;;;19.24;77.78;100017.13;5020059;28;20116;-40
2024/01/04 05:44:39;;;;;;;2.80;1.50;;;;;;;19.32;77.75;100014.78;5020988;28;20030;-37
2024/01/04 05:47:05;;;;;;;3.05;1.50;;;;;;;19.40;77.62;100023.13;5031065;28;20491;-40
2024/01/04 05:49:30;;;;;;;3.58;1.67;;;;;;;19.48;77.16;100021.56;5020838;28;20036;-40
2024/01/04 05:51:56;;;;;;;2.55;1.45;;;;;;;19.55;77.14;100024.72;5019127;28;20064;-39
2024/01/04 05:54:22;;;;;;;2.67;1.50;;;;;;;19.63;76.64;100023.22;5019681;28;20371;-40
2024/01/04 05:56:48;;;;;;;1.60;1.20;;;;;;;19.71;76.45;100032.66;5019525;28;20040;-40
2024/01/04 05:59:13;;;;;;;3.25;1.60;;;;;;;19.79;76.51;100042.09;5021406;28;20037;-40
2024/01/04 06:01:39;;;;;;;2.53;1.33;;;;;;;19.86;76.35;100045.28;5020179;28;20021;-39
2024/01/04 06:04:05;;;;;;;3.63;1.58;;;;;;;19.92;76.50;100037.75;5021489;28;20071;-39
2024/01/04 06:06:31;;;;;;;2.53;1.58;;;;;;;19.96;76.06;100045.09;5026011;28;20033;-40
2024/01/04 06:08:56;;;;;;;2.05;1.40;;;;;;;19.97;76.21;100043.13;5024035;28;20067;-40
2024/01/04 06:11:21;;;;;;;2.97;1.90;;;;;;;20.00;75.86;100050.75;5023711;28;20297;-40
2024/01/04 06:13:47;;;;;;;1.67;1.20;;;;;;;20.02;76.01;100052.09;5024634;28;20033;-39
2024/01/04 06:16:12;;;;;;;2.63;1.30;;;;;;;20.05;75.62;100056.16;5023260;28;20029;-40
2024/01/04 06:18:37;;;;;;;2.78;1.60;;;;;;;20.06;75.54;100054.22;5026562;28;20018;-40
2024/01/04 06:21:05;;;;;;;2.67;1.60;;;;;;;20.05;75.56;100053.41;5024470;28;20025;-40
2024/01/04 06:23:31;;;;;;;1.92;1.20;;;;;;;20.06;75.46;100065.22;5023361;28;20540;-40
2024/01/04 06:25:56;;;;;;;2.42;1.50;;;;;;;20.03;75.65;100063.91;5025798;28;20028;-40
2024/01/04 06:28:22;;;;;;;2.85;1.30;;;;;;;20.03;75.65;100072.16;5027019;28;20054;-40
2024/01/04 06:30:47;;;;;;;3.85;1.35;;;;;;;19.99;75.69;100077.44;5024268;28;20060;-39
2024/01/04 06:33:13;;;;;;;2.67;1.45;;;;;;;19.99;75.66;100077.44;5023889;28;20155;-39
2024/01/04 06:35:38;;;;;;;1.95;1.23;;;;;;;19.96;75.90;100074.50;5021839;28;20079;-37
2024/01/04 06:38:07;;;;;;;2.55;1.45;;;;;;;19.94;75.71;100073.97;5022958;28;20056;-40
2024/01/04 06:40:36;;;;;;;2.13;1.30;;;;;;;19.90;75.85;100076.53;5024421;28;20032;-40
2024/01/04 06:43:03;;;;;;;2.80;1.23;;;;;;;19.88;75.51;100084.31;5023633;28;20060;-40
2024/01/04 06:45:31;;;;;;;1.73;1.25;;;;;;;19.85;75.88;100085.72;5024800;28;20029;-40
2024/01/04 06:47:56;;;;;;;2.95;1.30;;;;;;;19.83;75.91;100098.13;5023220;28;20029;-40
2024/01/04 06:50:22;;;;;;;3.15;1.48;;;;;;;19.81;75.51;100105.88;5021574;28;20083;-39
2024/01/04 06:52:48;;;;;;;1.85;1.10;;;;;;;19.78;75.88;100100.97;5021089;28;20064;-38
2024/01/04 06:55:15;;;;;;;3.28;1.60;;;;;;;19.75;75.77;100118.09;5024333;28;20021;-40
2024/01/04 06:57:40;;;;;;;2.97;1.30;;;;;;;19.72;75.70;100131.31;5022852;28;20377;-39
2024/01/04 07:00:10;;;;;;;4.82;1.40;;;;;;;19.68;75.62;100119.31;5023211;28;20368;-37
2024/01/04 07:02:36;;;;;;;3.88;1.40;;;;;;;19.66;75.62;100120.75;5020249;28;20025;-37
2024/01/04 07:05:06;;;;;;;2.30;1.40;;;;;;;19.60;75.60;100125.50;5024060;28;20459;-37
2024/01/04 07:07:31;;;;;;;2.05;1.10;;;;;;;19.56;75.94;100130.00;5022464;28;20090;-37
2024/01/04 07:09:57;;;;;;;2.38;1.23;;;;;;;19.53;75.94;100127.84;5025433;28;20542;-36
2024/01/04 07:12:24;;;;;;;3.20;1.40;;;;;;;19.47;76.07;100129.91;5023295;28;20040;-38
2024/01/04 07:14:49;;;;;;;2.95;1.38;;;;;;;19.44;75.84;100133.25;5020674;28;20065;-37
2024/01/04 07:17:16;;;;;;;2.67;1.30;;;;;;;19.40;76.31;100137.72;5022418;28;20060;-38
2024/01/04 07:19:43;;;;;;;3.40;1.27;;;;;;;19.37;76.08;100141.91;5023480;28;20040;-40
2024/01/04 07:22:10;;;;;;;1.95;1.23;;;;;;;19.33;76.21;100142.78;5024118;28;20033;-40
2024/01/04 07:24:35;;;;;;;3.05;1.30;;;;;;;19.31;76.54;100143.09;5024749;28;20485;-40
2024/01/04 07:27:00;;;;;;;2.53;1.40;;;;;;;19.30;76.49;100154.38;5021808;28;20324;-39
2024/01/04 07:29:26;;;;;;;3.13;1.50;;;;;;;19.28;76.40;100148.38;5023129;28;20041;-39
2024/01/04 07:31:52;;;;;;;2.90;1.50;;;;;;;19.23;76.40;100152.84;5023602;28;20029;-39
2024/01/04 07:34:18;;;;;;;3.83;1.50;;;;;;;19.23;76.40;100160.28;5022285;28;20509;-42
2024/01/04 07:36:43;;;;;;;4.70;1.50;;;;;;;19.21;76.59;100165.25;5022212;28;20029;-40
2024/01/04 07:39:09;;;;;;;3.00;1.48;;;;;;;19.19;76.86;100168.31;5023574;28;20021;-39
2024/01/04 07:41:34;;;;;;;3.22;1.23;;;;;;;19.16;76.74;100171.63;5023154;28;20037;-39
2024/01/04 07:44:00;;;;;;;3.60;1.30;;;;;;;19.15;76.66;100174.69;5024187;28;20029;-38
2024/01/04 07:46:25;;;;;;;2.85;1.30;;;;;;;19.14;76.83;100175.81;5020593;28;20025;-38
2024/01/04 07:48:50;;;;;;;2.20;1.30;;;;;;;19.11;76.74;100182.72;5022390;28;20026;-39
2024/01/04 07:51:16;;;;;;;3.28;1.23;;;;;;;19.09;76.95;100184.94;5018905;28;20051;-38
2024/01/04 07:53:41;;;;;;;2.90;1.42;;;;;;;19.07;76.68;100182.50;5020523;28;20026;-37
2024/01/04 07:56:07;;;;;;;3.58;1.55;;;;;;;19.06;76.79;100185.56;5021182;28;20417;-38
2024/01/04 07:58:33;;;;;;;2.85;1.27;;;;;;;19.03;76.96;100189.72;5022699;28;20049;-40
2024/01/04 08:00:58;;;;;;;3.00;1.27;;;;;;;19.01;77.12;100194.69;5024594;28;20025;-38
2024/01/04 08:03:24;;;;;;;3.70;1.20;;;;;;;19.00;76.94;100197.75;5022150;28;20060;-40
2024/01/04 08:05:49;;;;;;;4.82;1.40;;;;;;;18.98;76.84;100202.69;5023936;28;20075;-39
2024/01/04 08:08:14;;;;;;;2.45;1.35;;;;;;;18.95;76.89;100195.88;5027517;28;20079;-41
2024/01/04 08:10:40;;;;;;;4.57;1.30;;;;;;;18.92;76.76;100200.03;5020128;28;20057;-38
2024/01/04 08:13:05;;;;;;;3.35;1.30;;;;;;;18.90;76.70;100195.94;5022144;28;20048;-38
2024/01/04 08:15:33;;;;;;;3.20;1.30;;;;;;;18.88;76.92;100203.66;5019087;28;20033;-39
2024/01/04 08:18:00;;;;;;;2.25;1.45;;;;;;;18.85;77.05;100202.31;5020990;28;20025;-39
2024/01/04 08:20:26;;;;;;;1.77;1.25;;;;;;;18.83;77.16;100199.03;5022983;28;20025;-39
2024/01/04 08:22:52;;;;;;;3.03;1.30;;;;;;;18.81;77.20;100194.97;5023747;28;20387;-40
2024/01/04 08:25:17;;;;;;;1.92;1.13;;;;;;;18.79;77.36;100199.97;5023093;28;20029;-39
2024/01/04 08:27:43;;;;;;;3.05;1.45;;;;;;;18.77;77.42;100200.22;5022060;28;20371;-39
2024/01/04 08:30:10;;;;;;;2.58;1.40;;;;;;;18.75;77.45;100206.03;5022587;28;20029;-38
2024/01/04 08:32:35;;;;;;;2.63;1.40;;;;;;;18.73;77.63;100204.69;5022395;28;20025;-39
2024/01/04 08:35:00;;;;;;;3.03;1.30;;;;;;;18.71;77.83;100204.16;5024822;28;20099;-37
2024/01/04 08:37:26;;;;;;;2.47;1.45;;;;;;;18.70;77.44;100206.13;5018653;28;20467;-37
2024/01/04 08:39:52;;;;;;;2.60;1.20;;;;;;;18.68;77.73;100211.06;5017153;28;20556;-38
2024/01/04 08:42:18;;;;;;;4.35;1.30;;;;;;;18.67;77.71;100211.38;5023227;28;20036;-37
2024/01/04 08:44:44;;;;;;;2.05;1.38;;;;;;;18.66;77.80;100217.97;5023525;28;20029;-37
2024/01/04 08:47:09;;;;;;;2.92;1.10;;;;;;;18.64;77.87;100221.03;5021765;28;20482;-37
2024/01/04 08:49:34;;;;;;;4.35;1.50;;;;;;;18.63;77.64;100216.63;5019903;28;20105;-36
2024/01/04 08:52:00;;;;;;;2.60;1.35;;;;;;;18.62;78.02;100228.72;5019573;28;20084;-37
2024/01/04 08:54:25;;;;;;;3.75;1.40;;;;;;;18.61;77.93;100229.84;5021897;28;20033;-36
2024/01/04 08:56:51;;;;;;;2.63;1.38;;;;;;;18.60;77.68;100230.94;5022608;28;20060;-37
2024/01/04 08:59:16;;;;;;;3.58;1.20;;;;;;;18.59;77.68;100235.63;5018644;28;20411;-37
2024/01/04 09:01:42;;;;;;;2.10;1.10;;;;;;;18.58;77.71;100241.41;5022460;28;20040;-37
2024/01/04 09:04:07;;;;;;;2.95;1.38;;;;;;;18.57;77.77;100243.31;5021313;28;20064;-36
2024/01/04 09:06:33;;;;;;;2.33;1.20;;;;;;;18.57;77.83;100248.00;5019817;28;20022;-36
2024/01/04 09:08:59;;;;;;;2.00;1.20;;;;;;;18.55;77.87;100242.81;5053299;28;20391;-36
2024/01/04 09:11:28;;;;;;;4.47;1.20;;;;;;;18.56;77.70;100249.13;5020630;28;20025;-36
2024/01/04 09:13:53;;;;;;;2.30;1.20;;;;;;;18.54;78.04;100256.81;5022284;28;20036;-37
2024/01/04 09:16:18;;;;;;;3.80;1.33;;;;;;;18.55;77.73;100258.47;5035312;28;20029;-36
2024/01/04 09:18:44;;;;;;;2.30;1.20;;;;;;;18.52;77.82;100251.63;5021051;28;20076;-37
2024/01/04 09:21:09;;;;;;;1.90;1.20;;;;;;;18.53;78.08;100255.22;5028207;28;20450;-38
2024/01/04 09:23:34;;;;;;;2.55;1.25;;;;;;;18.51;77.81;100254.69;5021874;28;20196;-37
2024/01/04 09:26:08;;;;;;;3.28;1.23;;;;;;;18.51;77.82;100260.16;5022644;28;20060;-37
2024/01/04 09:28:34;;;;;;;2.20;1.10;;;;;;;18.49;78.22;100263.22;5019870;28;20057;-37
2024/01/04 09:30:59;;;;;;;2.08;1.05;;;;;;;18.49;78.06;100267.88;5021009;28;20524;-37
2024/01/04 09:33:25;;;;;;;1.88;1.20;;;;;;;18.48;78.05;100269.81;5021085;28;20128;-36
2024/01/04 09:35:50;;;;;;;2.85;1.10;;;;;;;18.49;78.28;100265.13;5021778;28;20029;-37
2024/01/04 09:38:15;;;;;;;1.55;1.20;;;;;;;18.46;78.00;100261.03;5021522;28;20527;-39
2024/01/04 09:40:41;;;;;;;1.73;1.20;;;;;;;18.47;78.17;100270.09;5027247;28;20036;-37
2024/01/04 09:43:08;;;;;;;2.92;1.40;;;;;;;18.46;77.98;100277.50;5025010;28;20030;-38
2024/01/04 09:45:37;;;;;;;2.53;1.40;;;;;;;18.47;78.22;100281.06;5023233;28;20754;-38
2024/01/04 09:48:04;;;;;;;3.13;1.17;;;;;;;18.45;78.09;100289.59;5025034;28;20044;-37
2024/01/04 09:50:29;;;;;;;3.58;1.60;;;;;;;18.44;78.36;100288.78;5021449;28;20409;-38
2024/01/04 09:52:56;;;;;;;3.63;1.38;;;;;;;18.44;78.28;100297.00;5025254;28;20025;-37
2024/01/04 09:55:24;;;;;;;1.98;1.00;;;;;;;18.42;78.13;100293.75;5025541;28;20546;-37
2024/01/04 09:57:50;;;;;;;2.35;1.20;;;;;;;18.44;78.19;100301.66;5021467;28;20470;-37
2024/01/04 10:00:16;;;;;;;2.78;1.30;;;;;;;18.43;78.09;100327.50;5026746;28;20076;-36
2024/01/04 10:02:45;;;;;;;1.63;1.10;;;;;;;18.44;78.18;100334.59;5021566;28;20033;-36
2024/01/04 10:05:15;;;;;;;3.13;1.35;;;;;;;18.44;78.00;100329.94;5024810;28;20104;-36
2024/01/04 10:07:45;;;;;;;2.83;1.20;;;;;;;18.44;78.28;100337.34;5040928;28;20025;-39
2024/01/04 10:10:18;;;;;;;2.47;1.20;;;;;;;18.47;78.14;100330.44;5025077;28;20044;-40
2024/01/04 10:12:44;;;;;;;2.38;1.30;;;;;;;18.49;78.49;100334.56;5021562;28;20041;-38
2024/01/04 10:15:11;;;;;;;2.50;1.40;;;;;;;18.52;78.32;100344.94;5022625;28;20060;-39
2024/01/04 10:17:38;;;;;;;2.72;1.35;;;;;;;18.57;78.21;100333.09;5022235;28;20053;-39
2024/01/04 10:20:04;;;;;;;1.88;1.20;;;;;;;18.59;77.95;100330.88;5024089;28;20518;-39
2024/01/04 10:22:30;;;;;;;2.70;1.20;;;;;;;18.64;77.94;100335.47;5024043;28;20052;-39
2024/01/04 10:25:08;;;;;;;6.82;1.73;;;;;;;18.69;78.37;100340.91;5022133;28;20029;-40
2024/01/04 10:27:33;;;;;;;7.68;1.60;;;;;;;18.78;78.26;100341.88;5023647;28;20386;-42
2024/01/04 10:30:04;;;;;;;13.98;1.50;;;;;;;18.86;78.60;100333.00;5025816;28;20030;-40
2024/01/04 10:32:29;;;;;;;10.27;1.50;;;;;;;18.96;78.38;100343.06;5026256;28;20110;-41
2024/01/04 10:35:03;;;;;;;9.80;1.30;;;;;;;19.04;77.97;100338.81;5024245;28;20033;-41
2024/01/04 10:37:28;;;;;;;3.92;1.10;;;;;;;19.13;77.75;100341.72;5023960;28;20044;-40
2024/01/04 10:39:59;;;;;;;2.42;1.10;;;;;;;19.21;77.22;100341.91;5022377;28;20478;-37
2024/01/04 10:42:24;;;;;;;1.50;1.00;;;;;;;19.29;77.21;100340.41;5023734;28;20477;-38
2024/01/04 10:44:54;;;;;;;2.60;1.25;;;;;;;19.37;76.98;100338.91;5054090;28;20025;-38
2024/01/04 10:47:19;;;;;;;2.92;1.30;;;;;;;19.43;76.85;100340.47;5024297;28;20032;-39
2024/01/04 10:49:48;;;;;;;2.42;1.20;;;;;;;19.50;76.11;100345.59;5024259;28;20033;-39
2024/01/04 10:52:15;;;;;;;62.38;2.53;;;;;;;19.55;75.94;100340.81;5022769;28;20068;-38
2024/01/04 10:54:42;;;;;;;3.92;1.15;;;;;;;19.62;75.59;100337.69;5022411;28;20021;-39
2024/01/04 10:57:08;;;;;;;4.28;1.40;;;;;;;19.67;75.55;100339.53;5019529;28;20036;-37
2024/01/04 10:59:34;;;;;;;2.58;1.20;;;;;;;19.71;75.38;100343.31;5020784;28;20037;-37
2024/01/04 11:02:00;;;;;;;3.60;1.02;;;;;;;19.73;75.36;100346.59;5023566;28;20450;-38
2024/01/04 11:04:26;;;;;;;3.00;1.35;;;;;;;19.76;74.96;100336.94;5018672;28;20032;-36
2024/01/04 11:06:52;;;;;;;2.15;1.15;;;;;;;19.76;75.21;100337.72;5023124;28;20056;-37
2024/01/04 11:09:22;;;;;;;3.55;1.17;;;;;;;19.77;74.99;100344.06;5021162;28;20476;-37
2024/01/04 11:11:52;;;;;;;3.33;1.10;;;;;;;19.78;74.49;100342.91;5026840;28;20091;-36
2024/01/04 11:14:21;;;;;;;3.45;1.30;;;;;;;19.78;74.31;100340.16;5019444;28;20057;-38
2024/01/04 11:16:57;;;;;;;3.42;1.25;;;;;;;19.78;74.34;100343.75;5022797;28;20021;-37
2024/01/04 11:19:37;;;;;;;3.05;1.30;;;;;;;19.79;74.36;100345.38;5021950;28;20026;-39
2024/01/04 11:22:16;;;;;;;4.63;1.20;;;;;;;19.80;74.12;100344.25;5022746;28;20482;-38
2024/01/04 11:24:56;;;;;;;3.67;1.60;;;;;;;19.84;74.42;100341.75;5026695;28;20187;-38